Time;durP1;ratioP1;P1;durP2;ratioP2;P2;SDS_P1;SDS_P2;PMS_P1;PMS_P2;Temp;Humidity;BMP_temperature;BMP_pressure;BME280_temperature;BME280_humidity;BME280_pressure;Samples;Min_cycle;Max_cycle;Signal;HPM_P1;HPM_P2
2023/11/03 00:01:07;;;;;;;6.20;3.00;;;;;;;12.67;67.25;98376.06;6219223;28;20137;-73
2023/11/03 00:04:11;;;;;;;4.97;2.90;;;;;;;12.68;66.45;98377.72;6190119;28;20070;-76
2023/11/03 00:07:14;;;;;;;5.93;2.50;;;;;;;12.70;66.40;98377.56;6182916;28;20046;-75
2023/11/03 00:10:19;;;;;;;5.10;2.40;;;;;;;12.75;66.03;98379.75;6191243;28;20477;-76
2023/11/03 00:13:21;;;;;;;7.40;2.55;;;;;;;12.79;66.38;98370.63;6177503;28;20061;-76
2023/11/03 00:16:23;;;;;;;5.78;1.98;;;;;;;12.74;66.77;98365.00;6171501;28;20470;-76
2023/11/03 00:19:26;;;;;;;3.67;2.15;;;;;;;12.73;67.60;98374.66;6178771;28;20101;-76
2023/11/03 00:22:28;;;;;;;9.10;2.15;;;;;;;12.67;68.41;98372.63;6186931;28;20141;-76
2023/11/03 00:25:29;;;;;;;4.80;2.43;;;;;;;12.72;69.10;98370.38;6177694;28;20054;-75
2023/11/03 00:28:29;;;;;;;5.07;2.60;;;;;;;12.75;70.64;98379.75;6192874;28;20141;-73
2023/11/03 00:31:33;;;;;;;4.10;2.25;;;;;;;12.56;71.46;98375.44;6172117;28;20065;-73
2023/11/03 00:34:36;;;;;;;3.35;1.98;;;;;;;12.46;71.54;98378.13;6160644;28;20086;-73
2023/11/03 00:37:40;;;;;;;6.03;2.50;;;;;;;12.46;73.82;98371.09;6163094;28;20521;-72
2023/11/03 00:40:41;;;;;;;3.60;2.10;;;;;;;12.45;73.03;98363.38;6163730;28;20548;-75
2023/11/03 00:43:45;;;;;;;5.40;2.38;;;;;;;12.37;74.00;98358.88;6165864;28;20142;-75
2023/11/03 00:46:47;;;;;;;8.18;2.28;;;;;;;12.40;73.61;98350.75;6161281;28;20046;-75
2023/11/03 00:49:48;;;;;;;6.53;2.60;;;;;;;12.45;72.91;98352.94;6164082;28;20053;-75
2023/11/03 00:52:50;;;;;;;6.07;1.88;;;;;;;12.42;74.41;98348.81;6176081;28;20081;-72
2023/11/03 00:55:53;;;;;;;4.43;2.25;;;;;;;12.37;74.17;98342.38;6186350;28;20057;-73
2023/11/03 00:58:54;;;;;;;3.75;2.08;;;;;;;12.34;74.71;98333.03;6187123;28;20056;-72
2023/11/03 01:01:55;;;;;;;3.70;2.33;;;;;;;12.21;74.68;98332.53;6185239;28;20050;-72
2023/11/03 01:04:56;;;;;;;5.30;2.07;;;;;;;12.33;74.41;98318.28;6185408;28;20134;-72
2023/11/03 01:07:57;;;;;;;6.30;2.13;;;;;;;12.41;74.00;98302.69;6186897;28;20050;-74
2023/11/03 01:10:58;;;;;;;6.38;2.08;;;;;;;12.41;74.16;98299.25;6184955;28;20452;-76
2023/11/03 01:13:59;;;;;;;6.00;2.25;;;;;;;12.39;73.19;98296.78;6182275;28;20053;-76
2023/11/03 01:17:02;;;;;;;8.55;2.33;;;;;;;12.43;72.12;98295.53;6187576;28;20081;-73
2023/11/03 01:20:12;;;;;;;5.65;1.80;;;;;;;12.48;72.17;98301.16;6183479;28;20057;-73
2023/11/03 01:23:14;;;;;;;3.53;1.90;;;;;;;12.30;72.53;98292.47;6182698;28;20086;-73
2023/11/03 01:26:16;;;;;;;;;;;;;;;12.34;72.01;98293.00;6196939;28;20058;-73
2023/11/03 01:29:17;;;;;;;3.75;1.67;;;;;;;12.30;72.71;98289.84;6176491;28;19922;-72
2023/11/03 01:32:18;;;;;;;8.43;2.10;;;;;;;12.30;72.67;98277.59;6181363;28;20047;-73
2023/11/03 01:35:25;;;;;;;3.97;1.88;;;;;;;12.34;72.25;98261.59;6197604;28;20121;-72
2023/11/03 01:38:26;;;;;;;2.80;1.77;;;;;;;12.25;71.74;98260.69;6199738;28;20130;-72
2023/11/03 01:41:27;;;;;;;6.93;2.70;;;;;;;12.34;72.36;98245.91;6183747;28;20405;-73
2023/11/03 01:44:32;;;;;;;3.95;2.20;;;;;;;12.35;71.86;98242.31;6194718;28;20437;-73
2023/11/03 01:47:34;;;;;;;2.60;1.90;;;;;;;12.23;72.38;98239.09;6185625;28;20465;-73
2023/11/03 01:50:36;;;;;;;7.72;2.33;;;;;;;12.25;72.92;98234.53;6180494;28;20067;-76
2023/11/03 01:53:37;;;;;;;6.40;2.37;;;;;;;12.24;72.74;98236.34;6181235;28;20054;-76
2023/11/03 01:56:37;;;;;;;6.70;1.88;;;;;;;12.09;72.69;98240.44;6174087;28;20058;-76
2023/11/03 01:59:39;;;;;;;5.57;2.33;;;;;;;12.08;73.04;98231.75;6185607;28;20050;-75
2023/11/03 02:02:40;;;;;;;2.70;1.85;;;;;;;12.14;72.60;98221.69;6182839;28;20046;-76
2023/11/03 02:05:42;;;;;;;4.95;2.00;;;;;;;12.06;72.54;98214.59;6175420;28;20053;-76
2023/11/03 02:08:42;;;;;;;3.40;1.95;;;;;;;12.02;72.91;98211.44;6174345;28;20516;-72
2023/11/03 02:11:44;;;;;;;5.97;1.95;;;;;;;12.00;72.38;98204.72;6181000;28;20078;-73
2023/11/03 02:14:49;;;;;;;3.67;1.95;;;;;;;12.03;73.08;98200.03;6186085;28;20149;-73
2023/11/03 02:17:50;;;;;;;3.90;1.95;;;;;;;11.96;72.93;98193.72;6185735;28;20054;-73
2023/11/03 02:20:53;;;;;;;3.58;2.08;;;;;;;12.06;72.62;98178.78;6180739;28;20374;-76
2023/11/03 02:23:54;;;;;;;4.88;2.15;;;;;;;12.05;72.85;98178.97;6200859;28;20121;-72
2023/11/03 02:26:55;;;;;;;3.55;1.65;;;;;;;12.10;72.97;98180.16;6180533;28;20058;-73
2023/11/03 02:29:56;;;;;;;7.32;2.40;;;;;;;12.10;72.48;98168.88;6179594;28;20509;-72
2023/11/03 02:32:59;;;;;;;4.72;2.00;;;;;;;12.14;71.86;98170.22;6182284;28;20054;-76
2023/11/03 02:36:00;;;;;;;2.92;1.67;;;;;;;12.19;72.12;98164.53;6183742;28;20074;-75
2023/11/03 02:39:01;;;;;;;4.50;1.80;;;;;;;12.22;71.58;98156.41;6170500;28;20053;-73
2023/11/03 02:42:05;;;;;;;3.35;1.98;;;;;;;12.33;71.81;98148.31;6182692;28;20189;-76
2023/11/03 02:45:06;;;;;;;4.18;1.77;;;;;;;12.27;71.73;98146.31;6173347;28;20050;-76
2023/11/03 02:48:08;;;;;;;9.07;2.38;;;;;;;12.22;72.51;98144.16;6209293;28;20034;-76
2023/11/03 02:51:11;;;;;;;2.53;1.50;;;;;;;12.09;72.42;98133.25;6172194;28;20058;-72
2023/11/03 02:54:12;;;;;;;3.92;1.42;;;;;;;12.16;73.24;98125.63;6182900;28;20047;-76
2023/11/03 02:57:13;;;;;;;4.18;2.20;;;;;;;12.33;71.84;98103.03;6178167;28;20081;-76
2023/11/03 03:00:14;;;;;;;7.00;2.05;;;;;;;12.15;72.24;98108.28;6183437;28;20058;-73
2023/11/03 03:03:15;;;;;;;4.35;1.90;;;;;;;12.19;72.08;98101.78;6184623;28;20055;-73
2023/11/03 03:06:16;;;;;;;6.47;1.95;;;;;;;12.19;72.81;98105.25;6184240;28;20098;-73
2023/11/03 03:09:18;;;;;;;5.32;2.03;;;;;;;12.20;72.93;98099.03;6185076;28;20054;-72
2023/11/03 03:12:21;;;;;;;2.78;1.65;;;;;;;12.12;72.60;98100.75;6183678;28;20550;-72
2023/11/03 03:15:22;;;;;;;2.00;1.63;;;;;;;12.07;72.19;98099.41;6185319;28;20149;-73
2023/11/03 03:18:23;;;;;;;3.20;1.80;;;;;;;12.10;72.08;98093.88;6181024;28;20421;-76
2023/11/03 03:21:24;;;;;;;3.17;2.08;;;;;;;12.18;71.75;98085.28;6174842;28;20058;-76
2023/11/03 03:24:25;;;;;;;1.98;1.52;;;;;;;11.98;72.49;98091.66;6172272;28;20175;-76
2023/11/03 03:27:26;;;;;;;3.90;1.80;;;;;;;12.12;72.28;98080.66;6172633;28;20043;-72
2023/11/03 03:30:27;;;;;;;3.53;1.70;;;;;;;12.19;72.53;98079.09;6185817;28;20689;-72
2023/11/03 03:33:28;;;;;;;4.10;2.08;;;;;;;12.19;72.25;98059.94;6190831;28;20060;-72
2023/11/03 03:36:29;;;;;;;3.10;1.95;;;;;;;12.13;72.55;98055.34;6170853;28;20047;-75
2023/11/03 03:39:31;;;;;;;4.03;1.92;;;;;;;12.32;72.60;98049.13;6168353;28;20054;-76
2023/11/03 03:42:34;;;;;;;3.55;1.75;;;;;;;12.33;71.02;98051.56;6184455;28;20082;-75
2023/11/03 03:45:35;;;;;;;3.55;1.70;;;;;;;12.43;71.59;98033.97;6180698;28;20121;-76
2023/11/03 03:48:36;;;;;;;3.38;2.00;;;;;;;12.36;71.83;98017.25;6184044;28;20050;-73
2023/11/03 03:51:37;;;;;;;2.78;1.80;;;;;;;12.40;71.69;98021.22;6176265;28;20065;-72
2023/11/03 03:54:40;;;;;;;11.20;2.20;;;;;;;12.26;72.62;97999.06;6194652;28;20054;-73
2023/11/03 03:57:41;;;;;;;3.13;2.00;;;;;;;12.36;72.11;98000.75;6196951;28;20089;-72
2023/11/03 04:00:45;;;;;;;3.22;1.50;;;;;;;12.34;71.44;97977.38;6186426;28;20068;-72
2023/11/03 04:03:45;;;;;;;4.40;1.75;;;;;;;12.29;71.02;97987.47;6180616;28;20510;-73
2023/11/03 04:06:47;;;;;;;2.67;1.80;;;;;;;12.41;71.11;97982.78;6174280;28;20055;-73
2023/11/03 04:09:50;;;;;;;2.88;1.73;;;;;;;12.44;70.49;97972.03;6187238;28;20050;-73
2023/11/03 04:12:51;;;;;;;3.78;1.95;;;;;;;12.48;70.51;97960.28;6189630;28;20054;-76
2023/11/03 04:15:52;;;;;;;6.25;2.55;;;;;;;12.44;71.05;97936.22;6177635;28;20146;-72
2023/11/03 04:18:52;;;;;;;2.47;1.70;;;;;;;12.37;71.62;97922.13;6178340;28;20054;-73
2023/11/03 04:21:53;;;;;;;2.13;1.60;;;;;;;12.26;71.81;97911.97;6184071;28;20046;-72
2023/11/03 04:24:54;;;;;;;3.13;2.05;;;;;;;12.19;71.83;97911.78;6183763;28;20445;-73
2023/11/03 04:27:55;;;;;;;3.40;1.98;;;;;;;12.33;71.10;97893.84;6183076;28;20477;-72
2023/11/03 04:30:56;;;;;;;3.63;1.77;;;;;;;12.25;71.55;97903.31;6187804;28;20632;-73
2023/11/03 04:33:57;;;;;;;4.00;1.80;;;;;;;12.06;71.94;97899.09;6185082;28;20046;-76
2023/11/03 04:36:58;;;;;;;3.05;1.67;;;;;;;12.17;71.83;97886.75;6186605;28;20050;-75
2023/11/03 04:40:02;;;;;;;4.90;1.92;;;;;;;12.25;71.71;97910.31;6183362;28;20094;-72
2023/11/03 04:43:03;;;;;;;3.10;1.90;;;;;;;12.20;72.41;97926.47;6189520;28;20516;-73
2023/11/03 04:46:05;;;;;;;13.18;2.10;;;;;;;12.17;71.97;97937.25;6184351;28;20050;-73
2023/11/03 04:49:07;;;;;;;3.33;2.08;;;;;;;12.17;72.34;97933.78;6186016;28;20054;-72
2023/11/03 04:52:08;;;;;;;1.95;1.60;;;;;;;12.14;72.84;97915.81;6187052;28;20058;-73
2023/11/03 04:55:08;;;;;;;3.90;1.77;;;;;;;12.06;72.80;97922.63;6156724;28;20075;-72
2023/11/03 04:58:10;;;;;;;2.88;1.83;;;;;;;12.10;72.78;97920.53;6173895;28;20471;-73
2023/11/03 05:01:13;;;;;;;10.40;1.70;;;;;;;12.11;73.29;97911.72;6167455;28;20058;-72
2023/11/03 05:04:14;;;;;;;4.18;1.52;;;;;;;12.08;73.37;97901.56;6176737;28;20062;-72
2023/11/03 05:07:15;;;;;;;5.47;2.05;;;;;;;11.98;73.76;97900.88;6175160;28;20402;-72
2023/11/03 05:10:19;;;;;;;3.15;1.83;;;;;;;12.14;73.08;97898.34;6176487;28;20069;-71
2023/11/03 05:13:21;;;;;;;4.68;1.75;;;;;;;12.19;73.50;97888.25;6201026;28;20061;-72
2023/11/03 05:16:25;;;;;;;3.13;2.05;;;;;;;12.20;73.35;97886.44;6200379;28;20042;-71
2023/11/03 05:19:27;;;;;;;4.50;2.20;;;;;;;12.29;73.37;97882.88;6200176;28;20054;-72
2023/11/03 05:22:28;;;;;;;4.15;1.98;;;;;;;12.25;73.11;97864.09;6200300;28;20057;-75
2023/11/03 05:25:29;;;;;;;3.05;1.70;;;;;;;12.34;73.31;97872.78;6200483;28;20640;-76
2023/11/03 05:28:32;;;;;;;4.97;2.10;;;;;;;12.45;73.35;97874.28;6199648;28;20047;-77
2023/11/03 05:31:33;;;;;;;3.47;1.90;;;;;;;12.51;72.50;97884.09;6179991;28;20043;-77
2023/11/03 05:34:34;;;;;;;3.33;1.70;;;;;;;12.52;72.20;97890.16;6168782;28;20063;-76
2023/11/03 05:37:36;;;;;;;3.20;1.97;;;;;;;12.58;72.47;97884.28;6156773;28;20049;-76
2023/11/03 05:40:36;;;;;;;3.58;2.00;;;;;;;12.63;72.42;97877.59;6182673;28;20055;-76
2023/11/03 05:43:37;;;;;;;4.65;1.88;;;;;;;12.51;72.10;97868.41;6163761;28;20068;-73
2023/11/03 05:46:40;;;;;;;2.55;1.70;;;;;;;12.61;72.46;97861.25;6197290;28;20117;-73
2023/11/03 05:49:43;;;;;;;2.22;1.55;;;;;;;12.73;72.14;97847.88;6181586;28;20112;-74
2023/11/03 05:52:44;;;;;;;3.83;1.90;;;;;;;12.75;71.36;97828.41;6167600;28;20055;-74
2023/11/03 05:55:45;;;;;;;2.65;1.70;;;;;;;12.79;71.85;97821.06;6184583;28;20054;-73
2023/11/03 05:58:46;;;;;;;4.75;1.63;;;;;;;12.77;72.18;97828.25;6199854;28;20057;-73
2023/11/03 06:01:47;;;;;;;2.42;1.50;;;;;;;12.85;72.20;97808.13;6199265;28;20061;-73
2023/11/03 06:04:51;;;;;;;5.50;1.83;;;;;;;12.85;72.02;97795.06;6199720;28;20058;-73
2023/11/03 06:07:51;;;;;;;2.50;1.70;;;;;;;12.90;71.27;97797.19;6197500;28;20042;-73
2023/11/03 06:10:52;;;;;;;2.75;1.70;;;;;;;12.86;71.42;97804.53;6192226;28;20088;-72
2023/11/03 06:13:53;;;;;;;3.80;1.58;;;;;;;12.96;71.41;97804.38;6173814;28;20630;-76
2023/11/03 06:16:54;;;;;;;3.72;1.88;;;;;;;13.02;71.30;97805.53;6181452;28;20390;-75
2023/11/03 06:19:55;;;;;;;8.30;2.03;;;;;;;12.93;71.65;97814.34;6147827;28;20646;-76
2023/11/03 06:22:56;;;;;;;3.65;2.03;;;;;;;13.06;70.61;97823.34;6166556;28;20083;-73
2023/11/03 06:25:57;;;;;;;3.22;1.88;;;;;;;13.12;70.96;97811.41;6166816;28;20046;-72
2023/11/03 06:28:57;;;;;;;2.38;1.73;;;;;;;13.02;71.12;97822.03;6184513;28;20047;-73
2023/11/03 06:31:59;;;;;;;3.47;1.73;;;;;;;13.29;70.71;97807.00;6163816;28;20082;-71
2023/11/03 06:34:59;;;;;;;3.22;2.05;;;;;;;13.32;70.93;97803.22;6169775;28;20066;-71
2023/11/03 06:38:01;;;;;;;4.13;2.10;;;;;;;13.24;71.44;97806.63;6165349;28;20178;-75
2023/11/03 06:41:03;;;;;;;4.07;2.17;;;;;;;13.36;71.30;97805.34;6169493;28;20058;-72
2023/11/03 06:44:05;;;;;;;3.72;2.05;;;;;;;13.41;70.61;97804.88;6168047;28;20054;-72
2023/11/03 06:47:06;;;;;;;4.00;2.05;;;;;;;13.39;70.78;97804.22;6156352;28;20069;-76
2023/11/03 06:50:08;;;;;;;4.93;2.50;;;;;;;13.42;70.04;97809.09;6166115;28;20405;-73
2023/11/03 06:53:09;;;;;;;11.23;2.10;;;;;;;13.46;71.08;97799.94;6167070;28;20517;-73
2023/11/03 06:56:11;;;;;;;4.20;2.17;;;;;;;13.43;70.71;97805.53;6172804;28;20042;-76
2023/11/03 06:59:13;;;;;;;4.85;2.30;;;;;;;13.56;70.41;97802.38;6166650;28;20054;-76
2023/11/03 07:02:13;;;;;;;6.07;2.75;;;;;;;13.56;70.67;97811.03;6173863;28;20050;-73
2023/11/03 07:05:14;;;;;;;4.63;2.00;;;;;;;13.61;69.18;97798.28;6167536;28;20054;-72
2023/11/03 07:08:16;;;;;;;2.95;2.08;;;;;;;13.61;68.91;97807.91;6165633;28;20137;-72
2023/11/03 07:11:16;;;;;;;12.57;1.80;;;;;;;13.74;70.21;97810.84;6171851;28;20058;-76
2023/11/03 07:14:20;;;;;;;4.43;1.88;;;;;;;13.82;69.53;97816.06;6165431;28;20082;-75
2023/11/03 07:17:21;;;;;;;3.13;1.60;;;;;;;13.94;68.96;97811.28;6168344;28;20059;-76
2023/11/03 07:20:22;;;;;;;3.35;2.25;;;;;;;14.01;68.59;97825.34;6166694;28;20059;-76
2023/11/03 07:23:23;;;;;;;5.30;2.07;;;;;;;14.00;68.78;97823.72;6165761;28;20949;-72
2023/11/03 07:26:24;;;;;;;3.63;2.15;;;;;;;13.88;68.79;97802.28;6180504;28;20463;-72
2023/11/03 07:29:27;;;;;;;6.70;3.50;;;;;;;14.03;68.88;97807.63;6170775;28;20059;-71
2023/11/03 07:32:29;;;;;;;2.45;1.90;;;;;;;14.04;69.71;97809.28;6168278;28;20092;-72
2023/11/03 07:35:30;;;;;;;5.75;2.28;;;;;;;14.15;68.57;97805.44;6170940;28;20152;-76
2023/11/03 07:38:31;;;;;;;5.95;2.28;;;;;;;14.16;68.47;97820.19;6166929;28;20054;-73
2023/11/03 07:41:35;;;;;;;3.88;1.95;;;;;;;14.21;67.94;97824.94;6165674;28;20051;-76
2023/11/03 07:44:36;;;;;;;3.22;2.05;;;;;;;14.24;68.60;97821.97;6165657;28;20054;-76
2023/11/03 07:47:37;;;;;;;5.65;1.80;;;;;;;14.21;69.15;97825.75;6165208;28;20153;-76
2023/11/03 07:50:38;;;;;;;3.42;1.75;;;;;;;14.26;68.30;97812.13;6179159;28;20568;-76
2023/11/03 07:53:39;;;;;;;6.43;2.30;;;;;;;14.26;68.24;97804.25;6182423;28;20054;-76
2023/11/03 07:56:41;;;;;;;3.27;2.00;;;;;;;14.46;67.91;97786.28;6165833;28;20046;-72
2023/11/03 07:59:45;;;;;;;9.43;2.05;;;;;;;14.73;67.54;97777.09;6174773;28;20054;-76
2023/11/03 08:02:46;;;;;;;3.10;1.95;;;;;;;14.96;66.76;97778.88;6174107;28;20070;-76
2023/11/03 08:05:47;;;;;;;4.55;1.92;;;;;;;15.32;66.97;97785.13;6189429;28;20046;-72
2023/11/03 08:08:48;;;;;;;5.20;2.42;;;;;;;15.48;65.17;97768.38;6182104;28;20516;-76
2023/11/03 08:11:51;;;;;;;12.77;7.50;;;;;;;15.51;65.96;97772.47;6183471;28;20077;-76
2023/11/03 08:14:55;;;;;;;4.53;2.75;;;;;;;15.66;64.60;97775.09;6188877;28;20094;-76
2023/11/03 08:17:59;;;;;;;4.03;2.13;;;;;;;15.50;65.46;97760.31;6181904;28;20093;-76
2023/11/03 08:21:00;;;;;;;4.57;2.20;;;;;;;15.49;65.31;97763.94;6188182;28;20474;-73
2023/11/03 08:24:01;;;;;;;3.67;1.85;;;;;;;15.43;66.27;97767.28;6182143;28;20047;-76
2023/11/03 08:27:02;;;;;;;3.80;2.00;;;;;;;15.40;66.52;97768.47;6180398;28;20051;-73
2023/11/03 08:30:04;;;;;;;4.53;2.10;;;;;;;15.57;66.25;97761.22;6186984;28;20051;-72
2023/11/03 08:33:11;;;;;;;7.15;2.45;;;;;;;15.81;65.55;97769.84;6183829;28;20055;-76
2023/11/03 08:36:12;;;;;;;4.57;1.98;;;;;;;15.90;65.04;97760.88;6191276;28;20050;-73
2023/11/03 08:39:12;;;;;;;3.78;1.90;;;;;;;15.97;64.88;97758.31;6193324;28;20065;-73
2023/11/03 08:42:14;;;;;;;6.47;1.70;;;;;;;16.10;64.39;97756.66;6185923;28;20047;-72
2023/11/03 08:45:17;;;;;;;;;;;;;;;16.34;64.71;97744.16;6175788;28;20417;-73
2023/11/03 08:48:18;;;;;;;;;;;;;;;16.51;63.89;97742.09;6179061;28;20238;-76
2023/11/03 08:51:20;;;;;;;3.20;1.90;;;;;;;16.64;63.62;97742.25;6194765;28;19922;-76
2023/11/03 08:54:21;;;;;;;4.03;2.45;;;;;;;16.71;63.13;97729.94;6182835;28;20050;-76
2023/11/03 08:57:22;;;;;;;7.53;2.10;;;;;;;16.72;63.57;97717.59;6197304;28;20425;-73
2023/11/03 09:00:24;;;;;;;3.47;2.10;;;;;;;16.72;64.32;97701.81;6174559;28;20189;-73
2023/11/03 09:03:27;;;;;;;5.78;2.15;;;;;;;16.61;64.32;97705.75;6179444;28;20490;-73
2023/11/03 09:06:29;;;;;;;4.00;1.98;;;;;;;16.76;64.33;97718.84;6182272;28;20042;-73
2023/11/03 09:09:30;;;;;;;5.82;2.38;;;;;;;16.91;63.96;97710.91;6177046;28;20053;-73
2023/11/03 09:12:32;;;;;;;5.63;2.03;;;;;;;17.01;63.50;97710.56;6188963;28;20057;-73
2023/11/03 09:15:36;;;;;;;6.97;3.45;;;;;;;16.95;64.02;97703.44;6190991;28;20050;-73
2023/11/03 09:18:37;;;;;;;7.13;2.53;;;;;;;16.86;64.92;97694.84;6197704;28;20094;-72
2023/11/03 09:21:40;;;;;;;3.75;1.98;;;;;;;16.93;63.60;97700.97;6197069;28;20397;-72
2023/11/03 09:24:41;;;;;;;4.90;1.83;;;;;;;17.04;64.12;97681.19;6191808;28;20054;-76
2023/11/03 09:27:42;;;;;;;7.78;2.17;;;;;;;17.07;64.34;97671.09;6178595;28;20093;-76
2023/11/03 09:30:43;;;;;;;2.97;1.92;;;;;;;16.92;65.10;97673.84;6193033;28;20105;-75
2023/11/03 09:33:45;;;;;;;5.77;2.47;;;;;;;16.85;64.93;97669.53;6186849;28;20050;-76
2023/11/03 09:36:46;;;;;;;4.43;2.70;;;;;;;16.89;65.45;97663.66;6175621;28;20418;-75
2023/11/03 09:39:47;;;;;;;4.88;2.20;;;;;;;17.11;65.38;97653.06;6178339;28;20049;-75
2023/11/03 09:42:48;;;;;;;5.90;2.22;;;;;;;17.21;65.33;97656.16;6189328;28;20137;-75
2023/11/03 09:45:52;;;;;;;3.90;2.70;;;;;;;17.15;66.16;97649.03;6186508;28;20478;-75
2023/11/03 09:48:53;;;;;;;4.70;2.00;;;;;;;17.08;65.74;97654.25;6177873;28;20050;-75
2023/11/03 09:52:01;;;;;;;3.63;2.50;;;;;;;17.11;66.32;97663.59;6185659;28;20054;-76
2023/11/03 09:55:10;;;;;;;6.53;2.30;;;;;;;17.04;68.97;97646.94;6174053;28;20141;-75
2023/11/03 09:58:11;;;;;;;3.63;2.05;;;;;;;17.03;69.81;97635.59;6186103;28;20043;-73
2023/11/03 10:01:15;;;;;;;3.50;2.10;;;;;;;16.88;72.69;97612.03;6187308;28;20058;-73
2023/11/03 10:04:20;;;;;;;3.03;2.30;;;;;;;16.94;73.93;97601.69;6180199;28;20082;-74
2023/11/03 10:07:21;;;;;;;4.47;2.40;;;;;;;16.81;75.51;97590.06;6176999;28;20054;-76
2023/11/03 10:10:22;;;;;;;4.80;2.60;;;;;;;16.80;77.32;97582.34;6184014;28;20051;-75
2023/11/03 10:13:27;;;;;;;5.80;3.10;;;;;;;16.67;78.12;97570.72;6173390;28;20078;-75
2023/11/03 10:16:30;;;;;;;4.63;2.50;;;;;;;16.73;77.43;97566.50;6183573;28;20046;-72
2023/11/03 10:19:31;;;;;;;17.95;4.00;;;;;;;16.68;77.98;97566.28;6180317;28;20410;-72
2023/11/03 10:22:31;;;;;;;10.02;3.10;;;;;;;16.65;78.18;97577.19;6184799;28;20059;-75
2023/11/03 10:25:32;;;;;;;8.10;2.83;;;;;;;16.49;77.40;97575.66;6187324;28;20046;-75
2023/11/03 10:28:34;;;;;;;6.40;2.53;;;;;;;16.55;78.22;97572.25;6181059;28;20077;-72
2023/11/03 10:31:35;;;;;;;4.43;2.65;;;;;;;16.63;77.92;97576.56;6182042;28;20166;-72
2023/11/03 10:34:39;;;;;;;11.85;5.63;;;;;;;16.77;78.43;97573.00;6177686;28;20490;-72
2023/11/03 10:37:41;;;;;;;13.00;5.22;;;;;;;16.63;78.53;97574.75;6183005;28;20812;-76
2023/11/03 10:40:43;;;;;;;;;;;;;;;16.64;79.90;97565.03;6179899;28;20055;-75
2023/11/03 10:43:48;;;;;;;12.90;3.28;;;;;;;16.64;80.67;97550.06;6187183;28;19930;-73
2023/11/03 10:46:56;;;;;;;3.97;2.85;;;;;;;16.58;82.19;97531.59;6183343;28;20046;-72
2023/11/03 10:50:05;;;;;;;6.63;3.25;;;;;;;16.41;82.69;97467.91;6178297;28;20519;-75
2023/11/03 10:53:22;;;;;;;5.85;3.08;;;;;;;16.30;84.43;97471.88;6188477;28;20050;-72
2023/11/03 10:56:24;;;;;;;5.20;3.00;;;;;;;16.30;86.70;97480.59;6165148;28;20058;-72
2023/11/03 10:59:29;;;;;;;9.38;2.90;;;;;;;16.17;86.28;97492.88;6207602;28;20061;-75
2023/11/03 11:02:37;;;;;;;4.63;2.78;;;;;;;16.44;85.28;97486.75;6172066;28;20051;-75
2023/11/03 11:06:20;;;;;;;4.68;2.95;;;;;;;16.65;83.93;97490.31;6183661;28;20138;-75
2023/11/03 11:09:35;;;;;;;7.60;2.70;;;;;;;16.84;83.02;97475.63;6184852;28;20050;-75
2023/11/03 11:12:45;;;;;;;5.97;2.80;;;;;;;16.94;82.45;97449.75;6189641;28;20086;-73
2023/11/03 11:16:05;;;;;;;10.98;3.00;;;;;;;17.06;80.70;97461.34;6190082;28;20047;-75
2023/11/03 11:19:10;;;;;;;6.13;3.13;;;;;;;17.15;79.78;97445.34;6191459;28;20057;-75
2023/11/03 11:22:21;;;;;;;9.82;3.53;;;;;;;17.19;79.42;97450.00;6185010;28;20049;-75
2023/11/03 11:25:33;;;;;;;6.47;3.45;;;;;;;17.24;78.46;97442.34;6161889;28;20059;-76
2023/11/03 11:28:35;;;;;;;12.97;3.60;;;;;;;17.01;77.65;97428.72;6186406;28;20049;-75
2023/11/03 11:31:36;;;;;;;6.60;3.55;;;;;;;17.11;78.25;97418.59;6190345;28;20084;-76
2023/11/03 11:34:40;;;;;;;5.70;3.08;;;;;;;17.27;79.24;97418.22;6170557;28;20137;-72
2023/11/03 11:37:41;;;;;;;5.88;3.42;;;;;;;17.26;77.89;97427.13;6188424;28;20054;-75
2023/11/03 11:40:42;;;;;;;6.00;3.38;;;;;;;17.24;79.09;97425.72;6182904;28;20050;-75
2023/11/03 11:43:44;;;;;;;5.32;3.50;;;;;;;17.27;78.56;97434.00;6190133;28;20154;-76
2023/11/03 11:47:08;;;;;;;;;;;;;;;17.35;77.37;97451.47;6180283;28;20105;-72
2023/11/03 11:50:14;;;;;;;7.70;3.33;;;;;;;17.30;77.14;97478.44;6174561;28;19998;-75
2023/11/03 11:53:15;;;;;;;5.10;3.20;;;;;;;17.27;77.89;97513.06;6194389;28;20058;-75
2023/11/03 11:56:17;;;;;;;6.72;3.83;;;;;;;17.27;79.08;97546.53;6177436;28;20058;-75
2023/11/03 11:59:20;;;;;;;7.25;4.43;;;;;;;17.24;79.52;97584.63;6177626;28;20058;-75
2023/11/03 12:02:23;;;;;;;14.77;4.03;;;;;;;17.22;81.00;97596.38;6184609;28;20066;-75
2023/11/03 12:05:24;;;;;;;8.13;3.42;;;;;;;17.19;82.24;97596.75;6185124;28;20057;-75
2023/11/03 12:08:25;;;;;;;7.80;3.65;;;;;;;17.23;87.09;97600.63;6188205;28;20054;-76
2023/11/03 12:11:26;;;;;;;10.40;4.72;;;;;;;17.08;90.96;97613.94;6190393;28;20561;-75
2023/11/03 12:14:27;;;;;;;7.90;3.08;;;;;;;17.00;90.26;97607.00;6179886;28;20051;-73
2023/11/03 12:17:28;;;;;;;6.72;3.10;;;;;;;16.95;90.75;97598.06;6178524;28;20050;-76
2023/11/03 12:20:31;;;;;;;4.80;2.88;;;;;;;16.79;92.53;97584.16;6192486;28;20059;-75
2023/11/03 12:23:33;;;;;;;11.15;3.17;;;;;;;16.87;92.00;97584.03;6159289;28;20197;-75
2023/11/03 12:26:34;;;;;;;;;;;;;;;16.85;93.25;97593.16;6182198;28;20054;-75
2023/11/03 12:29:36;;;;;;;4.07;2.40;;;;;;;16.89;93.96;97576.75;6170956;28;19969;-77
2023/11/03 12:32:39;;;;;;;7.38;2.78;;;;;;;16.98;95.40;97579.22;6174168;28;20046;-75
2023/11/03 12:35:43;;;;;;;11.13;5.80;;;;;;;16.98;96.62;97572.13;6187697;28;20142;-77
2023/11/03 12:38:47;;;;;;;11.85;5.30;;;;;;;16.94;98.10;97567.47;6163039;28;20378;-77
2023/11/03 12:42:02;;;;;;;9.85;5.18;;;;;;;16.92;100.00;97557.13;6166608;28;20054;-77
2023/11/03 12:45:06;;;;;;;10.45;6.15;;;;;;;16.94;100.00;97546.38;6158700;28;20137;-75
2023/11/03 12:48:24;;;;;;;9.15;6.28;;;;;;;16.98;100.00;97576.59;6166012;28;20050;-74
2023/11/03 12:51:32;;;;;;;11.20;7.22;;;;;;;16.96;100.00;97568.06;6184872;28;20458;-75
2023/11/03 12:54:35;;;;;;;10.95;7.10;;;;;;;16.87;100.00;97567.44;6177803;28;20053;-74
2023/11/03 12:57:39;;;;;;;9.70;6.72;;;;;;;16.86;100.00;97578.97;6200345;28;20050;-77
2023/11/03 13:00:40;;;;;;;14.95;8.15;;;;;;;16.82;100.00;97565.38;6221630;28;20476;-77
2023/11/03 13:03:41;;;;;;;18.08;8.57;;;;;;;16.79;100.00;97557.03;6150733;28;20171;-75
2023/11/03 13:06:44;;;;;;;37.45;12.70;;;;;;;16.77;100.00;97562.47;6152037;28;20066;-77
2023/11/03 13:09:45;;;;;;;37.65;17.75;;;;;;;16.79;100.00;97562.28;6150521;28;20493;-77
2023/11/03 13:12:47;;;;;;;31.38;14.90;;;;;;;16.78;100.00;97544.84;6168141;28;20059;-75
2023/11/03 13:15:52;;;;;;;10.03;7.40;;;;;;;16.69;100.00;97550.28;6198696;28;20050;-77
2023/11/03 13:18:53;;;;;;;11.65;6.05;;;;;;;16.58;100.00;97563.19;6175131;28;20105;-77
2023/11/03 13:21:54;;;;;;;14.53;6.60;;;;;;;16.62;100.00;97556.53;6167533;28;20054;-75
2023/11/03 13:24:55;;;;;;;9.02;5.63;;;;;;;16.64;100.00;97552.69;6167799;28;20054;-75
2023/11/03 13:27:57;;;;;;;9.40;4.82;;;;;;;16.59;100.00;97564.78;6173215;28;20069;-75
2023/11/03 13:30:57;;;;;;;10.40;3.78;;;;;;;16.47;100.00;97581.13;6190685;28;20069;-76
2023/11/03 13:33:58;;;;;;;18.13;3.80;;;;;;;16.41;100.00;97581.91;6197537;28;20046;-75
2023/11/03 13:36:59;;;;;;;5.90;3.35;;;;;;;16.41;100.00;97602.09;6196157;28;20050;-74
2023/11/03 13:40:02;;;;;;;4.10;2.85;;;;;;;16.31;100.00;97613.78;6194120;28;20474;-75
2023/11/03 13:43:06;;;;;;;5.22;2.75;;;;;;;16.30;100.00;97621.88;6192582;28;20137;-77
2023/11/03 13:46:09;;;;;;;8.10;4.18;;;;;;;16.14;100.00;97616.88;6193834;28;20057;-78
2023/11/03 13:49:10;;;;;;;9.25;5.28;;;;;;;16.21;100.00;97612.50;6181769;28;20126;-78
2023/11/03 13:52:11;;;;;;;15.93;9.18;;;;;;;16.05;100.00;97611.72;6177343;28;20093;-78
2023/11/03 13:55:13;;;;;;;14.60;7.80;;;;;;;16.09;100.00;97606.91;6195626;28;20054;-77
2023/11/03 13:58:14;;;;;;;19.13;9.40;;;;;;;16.04;100.00;97604.00;6196815;28;20132;-77
2023/11/03 14:01:16;;;;;;;28.23;13.82;;;;;;;15.75;100.00;97628.59;6196725;28;20054;-77
2023/11/03 14:04:17;;;;;;;61.10;29.05;;;;;;;15.66;100.00;97620.00;6195971;28;20060;-75
2023/11/03 14:07:18;;;;;;;17.42;9.82;;;;;;;15.71;100.00;97626.34;6150825;28;20047;-75
2023/11/03 14:10:19;;;;;;;8.57;4.53;;;;;;;15.62;100.00;97630.06;6184491;28;20061;-76
2023/11/03 14:13:21;;;;;;;10.90;4.80;;;;;;;15.62;100.00;97630.06;6168957;28;20058;-76
2023/11/03 14:16:24;;;;;;;7.43;3.90;;;;;;;15.61;100.00;97648.66;6172727;28;20059;-76